createdAt,value
2023-05-13T00:02:17.099Z,10.23
2023-05-13T00:06:20.360Z,10.21
2023-05-13T00:10:23.798Z,10.19
2023-05-13T00:14:27.166Z,10.18
2023-05-13T00:18:31.582Z,10.17
2023-05-13T00:22:34.735Z,10.20
2023-05-13T00:26:37.726Z,10.21
2023-05-13T00:30:42.189Z,10.22
2023-05-13T00:34:47.243Z,10.19
2023-05-13T00:38:50.244Z,10.16
2023-05-13T00:42:53.618Z,10.15
2023-05-13T00:46:56.839Z,10.14
2023-05-13T00:51:02.096Z,10.07
2023-05-13T00:55:05.704Z,10.02
2023-05-13T00:59:09.021Z,9.99
2023-05-13T01:03:15.374Z,10.00
2023-05-13T01:07:28.818Z,9.98
2023-05-13T01:11:37.775Z,10.00
2023-05-13T01:15:44.141Z,10.03
2023-05-13T01:19:53.393Z,10.05
2023-05-13T01:23:57.785Z,10.07
2023-05-13T01:28:01.967Z,10.08
2023-05-13T01:32:08.521Z,10.08
2023-05-13T01:36:12.015Z,10.05
2023-05-13T01:40:31.716Z,10.02
2023-05-13T01:44:40.409Z,9.98
2023-05-13T01:48:43.528Z,9.98
2023-05-13T01:52:47.154Z,9.96
2023-05-13T01:56:52.914Z,9.98
2023-05-13T02:00:55.999Z,10.02
2023-05-13T02:04:59.082Z,10.01
2023-05-13T02:09:02.150Z,10.02
2023-05-13T02:13:06.961Z,9.99
2023-05-13T02:17:09.938Z,9.99
2023-05-13T02:21:13.022Z,9.99
2023-05-13T02:25:16.051Z,9.97
2023-05-13T02:29:20.433Z,9.96
2023-05-13T02:33:23.596Z,9.98
2023-05-13T02:37:28.704Z,10.01
2023-05-13T02:41:37.708Z,10.02
2023-05-13T02:45:42.730Z,10.03
2023-05-13T02:49:47.171Z,10.09
2023-05-13T02:53:50.616Z,10.11
2023-05-13T02:57:54.069Z,10.13
2023-05-13T03:01:58.670Z,10.14
2023-05-13T03:06:01.774Z,10.16
2023-05-13T03:10:05.223Z,10.16
2023-05-13T03:14:08.272Z,10.10
2023-05-13T03:18:12.674Z,10.10
2023-05-13T03:22:16.408Z,10.12
2023-05-13T03:26:19.870Z,10.14
2023-05-13T03:30:23.268Z,10.18
2023-05-13T03:34:37.861Z,10.20
2023-05-13T03:38:41.475Z,10.19
2023-05-13T03:42:45.087Z,10.19
2023-05-13T03:46:49.335Z,10.19
2023-05-13T03:50:54.301Z,10.23
2023-05-13T03:54:58.370Z,10.22
2023-05-13T03:59:01.419Z,10.23
2023-05-13T04:03:04.561Z,10.21
2023-05-13T04:07:09.013Z,10.21
2023-05-13T04:11:12.030Z,10.21
2023-05-13T04:15:15.084Z,10.21
2023-05-13T04:19:18.280Z,10.21
2023-05-13T04:23:25.660Z,10.17
2023-05-13T04:27:28.738Z,10.18
2023-05-13T04:31:38.617Z,10.21
2023-05-13T04:35:41.813Z,10.26
2023-05-13T04:39:47.712Z,10.27
2023-05-13T04:43:52.293Z,10.29
2023-05-13T04:47:57.731Z,10.30
2023-05-13T04:52:02.474Z,10.31
2023-05-13T04:56:08.776Z,10.31
2023-05-13T05:00:13.325Z,10.31
2023-05-13T05:04:17.950Z,10.33
2023-05-13T05:08:22.508Z,10.33
2023-05-13T05:12:30.561Z,10.34
2023-05-13T05:16:33.775Z,10.38
2023-05-13T05:20:37.514Z,10.40
2023-05-13T05:24:43.194Z,10.39
2023-05-13T05:28:47.717Z,10.42
2023-05-13T05:32:53.266Z,10.44
2023-05-13T05:36:56.598Z,10.47
2023-05-13T05:41:00.329Z,10.51
2023-05-13T05:45:06.018Z,10.55
2023-05-13T05:49:09.462Z,10.58
2023-05-13T05:53:13.370Z,10.58
2023-05-13T05:57:17.165Z,10.65
2023-05-13T06:01:21.776Z,10.67
2023-05-13T06:05:24.930Z,10.71
2023-05-13T06:09:28.065Z,10.78
2023-05-13T06:13:31.298Z,10.84
2023-05-13T06:17:35.713Z,10.89
2023-05-13T06:21:43.170Z,10.91
2023-05-13T06:25:46.946Z,10.95
2023-05-13T06:29:50.088Z,10.99
2023-05-13T06:33:54.588Z,11.03
2023-05-13T06:38:00.823Z,11.07
2023-05-13T06:42:04.998Z,11.07
2023-05-13T06:46:10.708Z,11.05
2023-05-13T06:50:15.227Z,11.08
2023-05-13T06:54:18.221Z,11.10
2023-05-13T06:58:21.277Z,11.16
2023-05-13T07:02:24.279Z,11.21
2023-05-13T07:06:28.741Z,11.25
2023-05-13T07:10:31.783Z,11.35
2023-05-13T07:14:34.902Z,11.41
2023-05-13T07:18:37.960Z,11.46
2023-05-13T07:22:42.480Z,11.46
2023-05-13T07:26:45.619Z,11.45
2023-05-13T07:30:48.717Z,11.46
2023-05-13T07:34:51.750Z,11.47
2023-05-13T07:38:56.317Z,11.46
2023-05-13T07:42:59.768Z,11.50
2023-05-13T07:47:02.880Z,11.53
2023-05-13T07:51:06.460Z,11.59
2023-05-13T07:55:11.448Z,11.54
2023-05-13T07:59:14.498Z,11.54
2023-05-13T08:03:34.628Z,11.53
2023-05-13T08:07:37.844Z,11.53
2023-05-13T08:11:42.865Z,11.49
2023-05-13T08:15:46.068Z,11.45
2023-05-13T08:19:49.135Z,11.39
2023-05-13T08:23:52.317Z,11.34
2023-05-13T08:27:56.874Z,11.34
2023-05-13T08:31:59.985Z,11.34
2023-05-13T08:36:03.044Z,11.28
2023-05-13T08:40:08.330Z,11.25
2023-05-13T08:44:13.715Z,11.19
2023-05-13T08:48:17.230Z,11.17
2023-05-13T08:52:22.581Z,11.15
2023-05-13T08:56:28.443Z,11.16
2023-05-13T09:00:34.328Z,11.14
2023-05-13T09:04:41.694Z,11.18
2023-05-13T09:08:44.828Z,11.27
2023-05-13T09:12:49.825Z,11.41
2023-05-13T09:16:57.518Z,11.56
2023-05-13T09:21:23.945Z,11.68
2023-05-13T09:25:27.567Z,11.75
2023-05-13T09:29:30.702Z,11.79
2023-05-13T09:33:41.250Z,11.77
2023-05-13T09:37:53.124Z,11.72
2023-05-13T09:41:57.364Z,11.71
2023-05-13T09:46:03.849Z,11.67
2023-05-13T09:50:20.518Z,11.67
2023-05-13T09:54:23.979Z,11.70
2023-05-13T09:58:29.177Z,11.74
2023-05-13T10:02:41.653Z,11.83
2023-05-13T10:06:48.652Z,11.92
2023-05-13T10:10:56.514Z,12.04
2023-05-13T10:15:02.547Z,12.19
2023-05-13T10:19:11.948Z,12.37
2023-05-13T10:23:16.772Z,12.40
2023-05-13T10:27:22.841Z,12.45
2023-05-13T10:31:27.445Z,12.48
2023-05-13T10:35:38.544Z,12.48
2023-05-13T10:40:06.954Z,12.45
2023-05-13T10:44:10.329Z,12.45
2023-05-13T10:48:18.445Z,12.45
2023-05-13T10:52:44.266Z,12.43
2023-05-13T10:56:58.349Z,12.39
2023-05-13T11:01:30.216Z,12.44
2023-05-13T11:05:33.593Z,12.55
2023-05-13T11:09:39.907Z,12.59
2023-05-13T11:13:46.880Z,12.64
2023-05-13T11:17:58.116Z,12.73
2023-05-13T11:22:10.182Z,12.79
2023-05-13T11:26:17.283Z,12.83
2023-05-13T11:30:26.822Z,12.90
2023-05-13T11:34:30.630Z,12.92
2023-05-13T11:38:34.597Z,12.98
2023-05-13T11:42:40.105Z,13.05
2023-05-13T11:46:56.164Z,13.01
2023-05-13T11:50:59.434Z,13.01
2023-05-13T11:55:02.616Z,13.03
2023-05-13T11:59:15.799Z,13.03
2023-05-13T12:03:20.369Z,12.98
2023-05-13T12:07:25.026Z,12.96
2023-05-13T12:11:28.393Z,12.96
2023-05-13T12:15:31.828Z,12.94
2023-05-13T12:19:37.362Z,12.95
2023-05-13T12:23:41.120Z,12.99
2023-05-13T12:27:44.600Z,12.96
2023-05-13T12:32:06.254Z,12.89
2023-05-13T12:36:23.270Z,12.83
2023-05-13T12:40:27.999Z,12.79
2023-05-13T12:44:33.561Z,12.78
2023-05-13T12:48:38.312Z,12.79
2023-05-13T12:52:42.935Z,12.82
2023-05-13T12:56:46.147Z,12.80
2023-05-13T13:00:49.537Z,12.86
2023-05-13T13:04:52.554Z,12.91
2023-05-13T13:08:57.082Z,12.92
2023-05-13T13:13:00.191Z,12.91
2023-05-13T13:17:03.219Z,12.94
2023-05-13T13:21:07.551Z,12.92
2023-05-13T13:25:12.017Z,12.88
2023-05-13T13:29:15.024Z,12.85
2023-05-13T13:33:18.420Z,12.85
2023-05-13T13:37:21.442Z,12.85
2023-05-13T13:41:26.352Z,12.88
2023-05-13T13:45:29.359Z,12.94
2023-05-13T13:49:32.334Z,13.09
2023-05-13T13:53:35.819Z,13.23
2023-05-13T13:57:40.243Z,13.32
2023-05-13T14:01:44.912Z,13.31
2023-05-13T14:05:48.096Z,13.25
2023-05-13T14:09:52.542Z,13.16
2023-05-13T14:13:56.901Z,13.07
2023-05-13T14:17:59.945Z,13.02
2023-05-13T14:22:02.967Z,12.99
2023-05-13T14:26:07.401Z,13.01
2023-05-13T14:30:12.310Z,13.04
2023-05-13T14:34:16.545Z,13.11
2023-05-13T14:42:36.128Z,13.16
2023-05-13T14:46:41.679Z,13.15
2023-05-13T14:50:45.578Z,13.10
2023-05-13T14:54:48.867Z,13.09
2023-05-13T14:58:52.761Z,13.12
2023-05-13T15:02:57.657Z,13.06
2023-05-13T15:07:03.801Z,13.03
2023-05-13T15:11:07.341Z,13.06
2023-05-13T15:15:11.961Z,13.04
2023-05-13T15:19:16.396Z,13.09
2023-05-13T15:23:19.383Z,13.13
2023-05-13T15:27:22.405Z,13.10
2023-05-13T15:31:25.535Z,13.05
2023-05-13T15:35:30.029Z,13.03
2023-05-13T15:39:33.116Z,12.97
2023-05-13T15:43:36.172Z,12.96
2023-05-13T15:47:39.371Z,12.97
2023-05-13T15:51:43.894Z,12.97
2023-05-13T15:55:47.695Z,12.98
2023-05-13T15:59:50.842Z,13.00
2023-05-13T16:03:54.049Z,13.02
2023-05-13T16:07:58.724Z,12.99
2023-05-13T16:12:01.837Z,12.97
2023-05-13T16:16:05.175Z,12.93
2023-05-13T16:20:11.532Z,12.94
2023-05-13T16:24:16.246Z,12.95
2023-05-13T16:28:19.363Z,12.94
2023-05-13T16:32:22.579Z,12.92
2023-05-13T16:36:26.925Z,12.92
2023-05-13T16:40:31.352Z,12.91
2023-05-13T16:44:34.390Z,12.88
2023-05-13T16:48:37.449Z,12.89
2023-05-13T16:52:40.538Z,12.89
2023-05-13T16:56:46.863Z,12.89
2023-05-13T17:00:49.982Z,12.88
2023-05-13T17:04:53.221Z,12.88
2023-05-13T17:08:56.320Z,12.91
2023-05-13T17:13:01.095Z,12.89
2023-05-13T17:17:04.242Z,12.83
2023-05-13T17:21:07.433Z,12.82
2023-05-13T17:25:11.302Z,12.78
2023-05-13T17:29:16.318Z,12.76
2023-05-13T17:33:19.329Z,12.70
2023-05-13T17:37:22.340Z,12.65
2023-05-13T17:41:25.516Z,12.56
2023-05-13T17:45:30.327Z,12.55
2023-05-13T17:49:33.327Z,12.54
2023-05-13T17:53:36.380Z,12.53
2023-05-13T17:57:39.426Z,12.50
2023-05-13T18:01:43.854Z,12.49
2023-05-13T18:05:47.038Z,12.42
2023-05-13T18:09:50.196Z,12.38
2023-05-13T18:13:54.480Z,12.37
2023-05-13T18:17:58.955Z,12.36
2023-05-13T18:22:01.991Z,12.36
2023-05-13T18:26:05.301Z,12.34
2023-05-13T18:30:09.314Z,12.34
2023-05-13T18:34:13.736Z,12.35
2023-05-13T18:38:16.753Z,12.35
2023-05-13T18:42:19.872Z,12.37
2023-05-13T18:46:23.042Z,12.41
2023-05-13T18:50:27.567Z,12.40
2023-05-13T18:54:31.226Z,12.38
2023-05-13T18:58:34.229Z,12.40
2023-05-13T19:02:37.382Z,12.42
2023-05-13T19:06:42.265Z,12.40
2023-05-13T19:10:45.270Z,12.35
2023-05-13T19:14:48.488Z,12.35
2023-05-13T19:18:51.749Z,12.32
2023-05-13T19:22:56.297Z,12.28
2023-05-13T19:26:59.496Z,12.23
2023-05-13T19:31:04.266Z,12.19
2023-05-13T19:35:08.417Z,12.16
2023-05-13T19:39:12.852Z,12.18
2023-05-13T19:43:16.004Z,12.19
2023-05-13T19:47:19.097Z,12.20
2023-05-13T19:51:22.118Z,12.19
2023-05-13T19:55:26.808Z,12.18
2023-05-13T19:59:29.915Z,12.21
2023-05-13T20:03:33.136Z,12.20
2023-05-13T20:07:36.485Z,12.19
2023-05-13T20:11:41.011Z,12.18
2023-05-13T20:15:44.280Z,12.16
2023-05-13T20:19:48.381Z,12.19
2023-05-13T20:23:51.437Z,12.18
2023-05-13T20:27:55.809Z,12.20
2023-05-13T20:31:58.814Z,12.20
2023-05-13T20:36:01.962Z,12.20
2023-05-13T20:40:05.579Z,12.22
2023-05-13T20:44:10.499Z,12.23
2023-05-13T20:48:13.840Z,12.25
2023-05-13T20:52:18.564Z,12.25
2023-05-13T20:56:22.786Z,12.23
2023-05-13T21:00:27.177Z,12.21
2023-05-13T21:04:34.306Z,12.18
2023-05-13T21:08:40.113Z,12.18
2023-05-13T21:12:47.805Z,12.18
2023-05-13T21:16:52.861Z,12.15
2023-05-13T21:20:55.946Z,12.12
2023-05-13T21:24:58.990Z,12.11
2023-05-13T21:29:01.994Z,12.16
2023-05-13T21:33:06.415Z,12.17
2023-05-13T21:37:09.551Z,12.17
2023-05-13T21:41:12.524Z,12.18
2023-05-13T21:45:16.110Z,12.17
2023-05-13T21:49:20.554Z,12.17
2023-05-13T21:53:23.590Z,12.16
2023-05-13T21:57:27.061Z,12.10
2023-05-13T22:01:30.113Z,12.07
2023-05-13T22:05:34.501Z,12.08
2023-05-13T22:09:37.490Z,12.09
2023-05-13T22:13:40.643Z,12.07
2023-05-13T22:17:43.958Z,12.06
2023-05-13T22:21:48.338Z,12.09
2023-05-13T22:25:51.325Z,12.12
2023-05-13T22:29:54.311Z,12.11
2023-05-13T22:33:57.293Z,12.12
2023-05-13T22:38:01.715Z,12.11
2023-05-13T22:42:04.775Z,12.11
2023-05-13T22:46:07.812Z,12.09
2023-05-13T22:50:12.344Z,12.07
2023-05-13T22:54:16.766Z,12.07
2023-05-13T22:58:20.048Z,12.07
2023-05-13T23:02:23.703Z,12.09
2023-05-13T23:06:27.098Z,12.09
2023-05-13T23:10:33.049Z,12.07
2023-05-13T23:14:36.057Z,12.06
2023-05-13T23:18:39.279Z,12.03
2023-05-13T23:22:42.294Z,12.01
2023-05-13T23:26:47.465Z,11.94
2023-05-13T23:30:53.921Z,11.88
2023-05-13T23:34:56.940Z,11.84
2023-05-13T23:38:59.991Z,11.79
2023-05-13T23:43:05.575Z,11.74
2023-05-13T23:47:08.629Z,11.70
2023-05-13T23:51:11.714Z,11.68
2023-05-13T23:55:15.334Z,11.67
2023-05-13T23:59:19.745Z,11.65
